Time;durP1;ratioP1;P1;durP2;ratioP2;P2;SDS_P1;SDS_P2;PMS_P1;PMS_P2;Temp;Humidity;BMP_temperature;BMP_pressure;BME280_temperature;BME280_humidity;BME280_pressure;Samples;Min_cycle;Max_cycle;Signal;HPM_P1;HPM_P2
2023/03/26 00:04:45;;;;;;;3.05;1.63;;;;;;;;;;10039598;29;20076;-85
2023/03/26 00:09:48;;;;;;;7.20;2.00;;;;;;;;;;10046549;29;20062;-85
2023/03/26 00:14:53;;;;;;;8.07;2.03;;;;;;;;;;10059730;29;20645;-85
2023/03/26 00:19:58;;;;;;;11.88;2.13;;;;;;;;;;10042550;29;20570;-86
2023/03/26 00:25:01;;;;;;;8.10;1.67;;;;;;;;;;10039667;29;20072;-85
2023/03/26 00:30:08;;;;;;;6.70;1.70;;;;;;;;;;10037785;29;20081;-87
2023/03/26 00:35:12;;;;;;;5.97;1.67;;;;;;;;;;10035174;29;20498;-86
2023/03/26 00:40:16;;;;;;;4.28;1.60;;;;;;;;;;10044121;29;20061;-87
2023/03/26 00:45:22;;;;;;;6.55;1.63;;;;;;;;;;10052858;29;20076;-83
2023/03/26 00:50:25;;;;;;;5.27;1.43;;;;;;;;;;10038923;29;20045;-85
2023/03/26 00:55:29;;;;;;;3.50;0.80;;;;;;;;;;10047339;29;20057;-87
2023/03/26 01:00:35;;;;;;;3.72;1.00;;;;;;;;;;10062378;29;20057;-86
2023/03/26 01:05:47;;;;;;;5.50;1.73;;;;;;;;;;10035832;29;20045;-85
2023/03/26 01:11:01;;;;;;;6.45;1.27;;;;;;;;;;10034864;29;20046;-85
2023/03/26 01:16:19;;;;;;;9.20;1.60;;;;;;;;;;10040864;29;20046;-82
2023/03/26 01:21:28;;;;;;;3.22;1.08;;;;;;;;;;10050032;29;20053;-85
2023/03/26 01:27:00;;;;;;;4.93;1.20;;;;;;;;;;10024930;29;20574;-82
2023/03/26 01:32:29;;;;;;;4.45;1.02;;;;;;;;;;10049505;29;20049;-82
2023/03/26 01:37:40;;;;;;;2.40;0.95;;;;;;;;;;10039909;29;20048;-87
2023/03/26 01:42:51;;;;;;;3.83;0.90;;;;;;;;;;10036446;29;20088;-84
2023/03/26 01:47:56;;;;;;;2.35;0.80;;;;;;;;;;10040695;29;20066;-87
2023/03/26 01:53:00;;;;;;;3.03;0.90;;;;;;;;;;10028403;29;20054;-87
2023/03/26 01:58:11;;;;;;;1.63;0.82;;;;;;;;;;10029291;29;20053;-85
2023/03/26 02:03:25;;;;;;;4.68;1.20;;;;;;;;;;10020134;29;20509;-84
2023/03/26 02:08:35;;;;;;;4.05;0.88;;;;;;;;;;10026825;29;20053;-85
2023/03/26 02:13:42;;;;;;;3.63;1.10;;;;;;;;;;10029927;29;20061;-85
2023/03/26 02:18:50;;;;;;;4.38;1.25;;;;;;;;;;10048481;29;20072;-86
2023/03/26 02:24:01;;;;;;;5.13;0.90;;;;;;;;;;10031209;29;20128;-84
2023/03/26 02:29:08;;;;;;;1.35;0.70;;;;;;;;;;10029037;29;20087;-85
2023/03/26 02:34:14;;;;;;;1.70;0.90;;;;;;;;;;10032024;29;20521;-86
2023/03/26 02:39:25;;;;;;;3.45;0.77;;;;;;;;;;10041984;29;20125;-82
2023/03/26 02:44:43;;;;;;;3.67;1.00;;;;;;;;;;10042468;29;20042;-82
2023/03/26 02:49:49;;;;;;;5.15;1.23;;;;;;;;;;10042106;29;20101;-82
2023/03/26 02:55:16;;;;;;;2.45;1.10;;;;;;;;;;10045869;29;20488;-84
2023/03/26 03:00:22;;;;;;;3.25;1.35;;;;;;;;;;10049298;29;20042;-82
2023/03/26 03:05:46;;;;;;;3.80;0.90;;;;;;;;;;10045542;29;20137;-82
2023/03/26 03:11:07;;;;;;;3.78;0.95;;;;;;;;;;10022732;29;20197;-83
2023/03/26 03:16:23;;;;;;;4.15;0.88;;;;;;;;;;10034530;29;20613;-85
2023/03/26 03:21:28;;;;;;;3.88;0.90;;;;;;;;;;10038731;29;20050;-86
2023/03/26 03:26:32;;;;;;;1.60;0.73;;;;;;;;;;10038831;29;20141;-82
2023/03/26 03:31:49;;;;;;;1.95;0.70;;;;;;;;;;10030928;29;20522;-83
2023/03/26 03:37:15;;;;;;;5.13;1.00;;;;;;;;;;10022145;29;20054;-82
2023/03/26 03:42:30;;;;;;;2.83;0.70;;;;;;;;;;10029668;29;20666;-85
2023/03/26 03:47:38;;;;;;;2.47;0.77;;;;;;;;;;10032188;29;20050;-84
2023/03/26 03:52:42;;;;;;;2.45;0.80;;;;;;;;;;10064124;29;20310;-84
2023/03/26 03:57:47;;;;;;;3.58;1.08;;;;;;;;;;10038185;29;20045;-85
2023/03/26 04:02:56;;;;;;;4.00;1.10;;;;;;;;;;10050503;29;20052;-84
2023/03/26 04:08:02;;;;;;;4.53;0.88;;;;;;;;;;10054458;29;20053;-85
2023/03/26 04:13:17;;;;;;;2.25;0.80;;;;;;;;;;10061528;29;20049;-86
2023/03/26 04:18:39;;;;;;;2.60;1.00;;;;;;;;;;10058078;29;20297;-84
2023/03/26 04:23:48;;;;;;;4.45;1.08;;;;;;;;;;10065283;29;20073;-84
2023/03/26 04:29:10;;;;;;;5.47;1.25;;;;;;;;;;10040018;29;20045;-84
2023/03/26 04:34:22;;;;;;;5.65;1.27;;;;;;;;;;10049677;29;20230;-84
2023/03/26 04:39:35;;;;;;;3.63;1.10;;;;;;;;;;10067349;29;20045;-86
2023/03/26 04:44:58;;;;;;;1.45;0.80;;;;;;;;;;10054763;29;20140;-85
2023/03/26 04:50:11;;;;;;;4.88;1.15;;;;;;;;;;10052773;29;20049;-86
2023/03/26 04:55:21;;;;;;;2.97;0.90;;;;;;;;;;10050106;29;20132;-86
2023/03/26 05:00:32;;;;;;;4.97;1.38;;;;;;;;;;10057810;29;20509;-85
2023/03/26 05:05:38;;;;;;;1.75;0.82;;;;;;;;;;10049453;29;20038;-85
2023/03/26 05:10:42;;;;;;;2.03;0.77;;;;;;;;;;10054595;29;20049;-86
2023/03/26 05:15:55;;;;;;;3.63;1.20;;;;;;;;;;10051883;29;20048;-86
2023/03/26 05:21:21;;;;;;;5.70;1.00;;;;;;;;;;10057560;29;20046;-86
2023/03/26 05:26:25;;;;;;;3.30;0.98;;;;;;;;;;10058118;29;20069;-86
2023/03/26 05:31:29;;;;;;;2.60;1.00;;;;;;;;;;10055062;29;20124;-85
2023/03/26 05:36:35;;;;;;;1.42;0.73;;;;;;;;;;10037581;29;20077;-85
2023/03/26 05:41:58;;;;;;;3.08;0.90;;;;;;;;;;10050395;29;20421;-84
2023/03/26 05:47:11;;;;;;;2.83;0.90;;;;;;;;;;10056412;29;20084;-85
2023/03/26 05:52:17;;;;;;;1.35;0.73;;;;;;;;;;10041449;29;20050;-84
2023/03/26 05:57:44;;;;;;;4.28;1.40;;;;;;;;;;10037174;29;20056;-84
2023/03/26 06:03:11;;;;;;;2.25;0.70;;;;;;;;;;10034777;29;20046;-84
2023/03/26 06:08:35;;;;;;;3.58;1.38;;;;;;;;;;10037326;29;20105;-84
2023/03/26 06:13:40;;;;;;;6.57;1.33;;;;;;;;;;10049736;29;20049;-84
2023/03/26 06:18:44;;;;;;;4.90;1.17;;;;;;;;;;10058511;29;20577;-84
2023/03/26 06:24:17;;;;;;;1.90;0.80;;;;;;;;;;10064330;29;20061;-84
2023/03/26 06:29:37;;;;;;;3.72;1.20;;;;;;;;;;10045611;29;20041;-84
2023/03/26 06:35:07;;;;;;;1.33;0.82;;;;;;;;;;10037296;29;20569;-86
2023/03/26 06:40:13;;;;;;;3.33;1.00;;;;;;;;;;10042256;29;20582;-85
2023/03/26 06:45:32;;;;;;;3.00;1.10;;;;;;;;;;10047997;29;20056;-85
2023/03/26 06:50:55;;;;;;;4.25;1.00;;;;;;;;;;10051420;29;20045;-84
2023/03/26 06:56:10;;;;;;;5.55;1.40;;;;;;;;;;10063061;29;20049;-85
2023/03/26 07:01:32;;;;;;;4.65;1.63;;;;;;;;;;10044668;29;20049;-85
2023/03/26 07:06:55;;;;;;;4.28;1.27;;;;;;;;;;10056473;29;20045;-84
2023/03/26 07:12:18;;;;;;;3.17;1.38;;;;;;;;;;10050341;29;20178;-84
2023/03/26 07:17:47;;;;;;;4.82;1.40;;;;;;;;;;10055821;29;20050;-84
2023/03/26 07:22:58;;;;;;;2.67;1.10;;;;;;;;;;10058127;29;20045;-84
2023/03/26 07:28:35;;;;;;;2.53;0.85;;;;;;;;;;10068611;29;20040;-84
2023/03/26 07:34:00;;;;;;;2.25;1.00;;;;;;;;;;10052782;29;20045;-84
2023/03/26 07:39:39;;;;;;;1.52;0.80;;;;;;;;;;10045996;29;20053;-84
2023/03/26 07:45:17;;;;;;;3.38;1.15;;;;;;;;;;10039885;29;20494;-84
2023/03/26 07:50:36;;;;;;;2.78;1.23;;;;;;;;;;10060466;29;20060;-83
2023/03/26 07:55:51;;;;;;;3.35;1.50;;;;;;;;;;10110900;23;20056;-84
2023/03/26 08:01:24;;;;;;;4.13;1.23;;;;;;;;;;10036665;29;20101;-84
2023/03/26 08:06:34;;;;;;;6.28;1.50;;;;;;;;;;10045612;29;20041;-85
2023/03/26 08:12:16;;;;;;;2.05;0.80;;;;;;;;;;10036971;29;20517;-85
2023/03/26 08:17:30;;;;;;;3.13;1.00;;;;;;;;;;10033186;29;20057;-85
2023/03/26 08:22:39;;;;;;;3.00;0.93;;;;;;;;;;10033246;29;20055;-85
2023/03/26 08:27:51;;;;;;;1.48;0.88;;;;;;;;;;10042090;29;20077;-85
2023/03/26 08:32:58;;;;;;;3.53;1.27;;;;;;;;;;10024545;29;20046;-85
2023/03/26 08:38:02;;;;;;;1.17;0.80;;;;;;;;;;10039145;29;20050;-86
2023/03/26 08:43:49;;;;;;;1.17;0.82;;;;;;;;;;10052016;29;20076;-86
2023/03/26 08:49:24;;;;;;;1.27;0.70;;;;;;;;;;10026068;29;20075;-85
2023/03/26 08:54:55;;;;;;;1.80;0.70;;;;;;;;;;10026923;29;20046;-86
2023/03/26 09:00:32;;;;;;;0.60;0.50;;;;;;;;;;10029827;29;20052;-86
2023/03/26 09:05:44;;;;;;;;;;;;;;;;;;10027732;29;20818;-86
2023/03/26 09:11:12;;;;;;;1.50;0.60;;;;;;;;;;10029430;29;19931;-86
2023/03/26 09:16:55;;;;;;;0.90;0.57;;;;;;;;;;10033683;29;20081;-87
2023/03/26 09:22:39;;;;;;;2.58;0.80;;;;;;;;;;10045028;29;20053;-86
2023/03/26 09:28:08;;;;;;;1.20;0.63;;;;;;;;;;10027043;29;20569;-87
2023/03/26 09:33:31;;;;;;;2.08;0.85;;;;;;;;;;10015381;29;20049;-90
2023/03/26 09:38:43;;;;;;;3.00;1.25;;;;;;;;;;10012376;29;20041;-88
2023/03/26 09:44:22;;;;;;;2.08;1.08;;;;;;;;;;10036212;29;20048;-88
2023/03/26 09:49:36;;;;;;;2.28;1.10;;;;;;;;;;10034187;29;20049;-88
2023/03/26 09:55:07;;;;;;;2.67;1.20;;;;;;;;;;10021940;29;20513;-89
2023/03/26 10:00:28;;;;;;;2.83;1.20;;;;;;;;;;10016092;29;20414;-88
2023/03/26 10:05:47;;;;;;;2.65;0.90;;;;;;;;;;10011857;29;20586;-91
2023/03/26 10:11:01;;;;;;;2.67;1.40;;;;;;;;;;10018181;29;20048;-88
2023/03/26 10:16:16;;;;;;;2.50;1.30;;;;;;;;;;10022643;29;20521;-89
2023/03/26 10:21:29;;;;;;;4.63;1.13;;;;;;;;;;10000556;29;20057;-89
2023/03/26 10:26:51;;;;;;;2.85;0.88;;;;;;;;;;10019275;29;20061;-88
2023/03/26 10:32:01;;;;;;;2.78;0.68;;;;;;;;;;10021754;29;20042;-88
2023/03/26 10:37:09;;;;;;;0.95;0.52;;;;;;;;;;10045366;29;20053;-85
2023/03/26 10:42:31;;;;;;;0.73;0.52;;;;;;;;;;10027935;29;20410;-86
2023/03/26 10:48:34;;;;;;;0.95;0.40;;;;;;;;;;10018197;29;20046;-86
2023/03/26 10:53:47;;;;;;;0.82;0.35;;;;;;;;;;9878333;29;20650;-85
2023/03/26 10:58:53;;;;;;;1.70;0.30;;;;;;;;;;10014975;29;20073;-86
2023/03/26 11:04:06;;;;;;;0.68;0.40;;;;;;;;;;10032145;29;20045;-86
2023/03/26 11:09:24;;;;;;;1.88;0.70;;;;;;;;;;10045935;29;20125;-86
2023/03/26 11:14:34;;;;;;;1.05;0.30;;;;;;;;;;10021518;29;20124;-86
2023/03/26 11:19:45;;;;;;;0.60;0.30;;;;;;;;;;10029304;29;20145;-86
2023/03/26 11:25:06;;;;;;;0.95;0.40;;;;;;;;;;10036306;29;20126;-90
2023/03/26 11:30:23;;;;;;;1.75;0.65;;;;;;;;;;10025657;29;20041;-88
2023/03/26 11:35:31;;;;;;;1.42;0.60;;;;;;;;;;10032294;29;20061;-89
2023/03/26 11:40:38;;;;;;;0.85;0.50;;;;;;;;;;10026836;29;20053;-89
2023/03/26 11:45:48;;;;;;;0.80;0.45;;;;;;;;;;10026059;29;20046;-91
2023/03/26 11:50:56;;;;;;;0.40;0.30;;;;;;;;;;10025680;29;20069;-88
2023/03/26 11:56:03;;;;;;;0.57;0.47;;;;;;;;;;10036903;29;20061;-88
2023/03/26 12:01:17;;;;;;;0.77;0.45;;;;;;;;;;10032393;29;20593;-89
2023/03/26 12:06:27;;;;;;;1.55;0.50;;;;;;;;;;10033672;29;20060;-89
2023/03/26 12:11:34;;;;;;;2.38;0.80;;;;;;;;;;10041799;29;20053;-90
2023/03/26 12:16:56;;;;;;;1.45;0.60;;;;;;;;;;10030743;29;20049;-89
2023/03/26 12:21:59;;;;;;;0.63;0.40;;;;;;;;;;10043720;29;20052;-89
2023/03/26 12:27:21;;;;;;;1.92;0.60;;;;;;;;;;10035741;29;20120;-88
2023/03/26 12:32:32;;;;;;;0.75;0.40;;;;;;;;;;10032381;29;20057;-89
2023/03/26 12:37:43;;;;;;;1.55;0.55;;;;;;;;;;10040234;29;20053;-90
2023/03/26 12:42:53;;;;;;;1.65;0.65;;;;;;;;;;10028011;29;20204;-90
2023/03/26 12:48:00;;;;;;;1.98;0.50;;;;;;;;;;10031202;29;20053;-89
2023/03/26 12:53:25;;;;;;;1.17;0.63;;;;;;;;;;10028099;29;20113;-90
2023/03/26 12:58:46;;;;;;;1.30;0.28;;;;;;;;;;10042940;29;20044;-89
2023/03/26 13:04:12;;;;;;;1.23;0.60;;;;;;;;;;10044656;29;20052;-89
2023/03/26 13:09:42;;;;;;;0.90;0.60;;;;;;;;;;10061848;29;20055;-89
2023/03/26 13:15:20;;;;;;;0.82;0.60;;;;;;;;;;10038144;29;20049;-88
2023/03/26 13:20:33;;;;;;;2.95;0.80;;;;;;;;;;10043152;29;20105;-87
2023/03/26 13:25:44;;;;;;;1.88;0.50;;;;;;;;;;10025531;29;20148;-87
2023/03/26 13:30:55;;;;;;;2.35;0.80;;;;;;;;;;10033123;29;20056;-87
2023/03/26 13:36:06;;;;;;;2.05;0.52;;;;;;;;;;10024989;29;20050;-89
2023/03/26 13:41:30;;;;;;;3.05;0.60;;;;;;;;;;10021851;29;20438;-87
2023/03/26 13:46:38;;;;;;;1.20;0.50;;;;;;;;;;10021784;29;20048;-86
2023/03/26 13:51:47;;;;;;;2.15;0.50;;;;;;;;;;10024963;29;20054;-86
2023/03/26 13:56:56;;;;;;;2.35;0.60;;;;;;;;;;10030852;29;20129;-86
2023/03/26 14:02:05;;;;;;;2.47;0.65;;;;;;;;;;10026172;29;20379;-86
2023/03/26 14:07:17;;;;;;;0.57;0.35;;;;;;;;;;10026920;29;20054;-86
2023/03/26 14:12:29;;;;;;;1.20;0.57;;;;;;;;;;10032867;29;20533;-87
2023/03/26 14:17:38;;;;;;;1.35;0.75;;;;;;;;;;10050423;29;20088;-87
2023/03/26 14:22:52;;;;;;;0.98;0.60;;;;;;;;;;10029971;29;20049;-86
2023/03/26 14:28:05;;;;;;;1.77;0.85;;;;;;;;;;10031762;29;20045;-86
2023/03/26 14:33:37;;;;;;;2.53;1.08;;;;;;;;;;10030506;29;20577;-87
2023/03/26 14:39:22;;;;;;;1.80;0.70;;;;;;;;;;10038969;29;20057;-86
2023/03/26 14:44:56;;;;;;;1.08;0.30;;;;;;;;;;9993079;29;20049;-87
2023/03/26 14:50:25;;;;;;;0.32;0.30;;;;;;;;;;10017649;29;20046;-87
2023/03/26 14:55:49;;;;;;;0.93;0.90;;;;;;;;;;10023214;29;20121;-86
2023/03/26 15:01:20;;;;;;;0.50;0.30;;;;;;;;;;10024576;29;20056;-85
2023/03/26 15:06:51;;;;;;;0.95;0.30;;;;;;;;;;10033655;29;21358;-87
2023/03/26 15:12:05;;;;;;;0.30;0.30;;;;;;;;;;10036686;29;20065;-91
2023/03/26 15:17:36;;;;;;;0.55;0.22;;;;;;;;;;10039325;29;20050;-86
2023/03/26 15:23:22;;;;;;;1.02;0.40;;;;;;;;;;10025502;29;20062;-86
2023/03/26 15:29:11;;;;;;;1.13;0.45;;;;;;;;;;10017657;29;20052;-89
2023/03/26 15:35:06;;;;;;;2.08;1.48;;;;;;;;;;10022270;29;20052;-85
2023/03/26 15:40:36;;;;;;;1.55;1.10;;;;;;;;;;9896739;29;20071;-83
2023/03/26 15:45:47;;;;;;;0.60;0.57;;;;;;;;;;9996913;29;20042;-83
2023/03/26 15:50:56;;;;;;;0.40;0.30;;;;;;;;;;10041272;29;20057;-87
2023/03/26 15:56:19;;;;;;;1.65;0.55;;;;;;;;;;10023738;29;20559;-85
2023/03/26 16:01:36;;;;;;;1.02;0.40;;;;;;;;;;10013662;29;20460;-87
2023/03/26 16:06:57;;;;;;;0.90;0.35;;;;;;;;;;9998836;29;20073;-86
2023/03/26 16:12:24;;;;;;;0.85;0.40;;;;;;;;;;10011430;29;20400;-85
2023/03/26 16:18:21;;;;;;;1.17;0.50;;;;;;;;;;10031583;29;20296;-87
2023/03/26 16:23:28;;;;;;;0.52;0.50;;;;;;;;;;9986899;29;20064;-85
2023/03/26 16:28:34;;;;;;;1.17;0.70;;;;;;;;;;9999202;29;20046;-85
2023/03/26 16:33:44;;;;;;;;;;;;;;;;;;10023461;29;20046;-86
2023/03/26 16:38:53;;;;;;;0.98;0.43;;;;;;;;;;10027074;29;19924;-86
2023/03/26 16:44:09;;;;;;;1.05;0.60;;;;;;;;;;10028925;29;20091;-86
2023/03/26 18:08:00;;;;;;;1.13;0.45;;;;;;;;;;12732674;22;1265206;-84
2023/03/26 18:13:25;;;;;;;0.80;0.70;;;;;;;;;;12633543;23;20041;-84
2023/03/26 18:18:36;;;;;;;1.70;0.60;;;;;;;;;;12632695;23;20022;-84
2023/03/26 18:23:47;;;;;;;4.55;2.75;;;;;;;;;;12668640;23;20338;-85
2023/03/26 18:28:54;;;;;;;3.53;2.20;;;;;;;;;;12631159;23;20022;-84
2023/03/26 18:34:08;;;;;;;1.67;1.05;;;;;;;;;;12631050;23;20036;-83
2023/03/26 18:39:15;;;;;;;2.45;1.23;;;;;;;;;;12631430;23;20022;-84
2023/03/26 18:44:20;;;;;;;1.65;0.93;;;;;;;;;;12633388;23;20081;-85
2023/03/26 18:49:27;;;;;;;0.52;0.52;;;;;;;;;;12633856;23;20026;-84
2023/03/26 18:54:35;;;;;;;1.35;1.25;;;;;;;;;;12636307;23;20022;-85
2023/03/26 18:59:44;;;;;;;1.02;0.80;;;;;;;;;;12631662;23;20022;-84
2023/03/26 19:04:49;;;;;;;2.22;2.03;;;;;;;;;;12631706;23;20475;-84
2023/03/26 19:09:55;;;;;;;1.73;1.30;;;;;;;;;;12631213;23;20025;-84
2023/03/26 19:15:04;;;;;;;1.20;1.10;;;;;;;;;;12631429;23;20487;-84
2023/03/26 19:20:16;;;;;;;0.60;0.60;;;;;;;;;;12630809;23;20029;-84
2023/03/26 19:25:24;;;;;;;0.50;0.50;;;;;;;;;;12630906;23;20029;-84
2023/03/26 19:30:31;;;;;;;0.70;0.70;;;;;;;;;;12632487;23;20090;-84
2023/03/26 19:35:40;;;;;;;0.85;0.80;;;;;;;;;;12631782;23;20077;-84
2023/03/26 19:40:45;;;;;;;0.50;0.50;;;;;;;;;;12631260;23;20030;-85
2023/03/26 19:45:51;;;;;;;0.50;0.50;;;;;;;;;;12657143;23;20026;-84
2023/03/26 19:51:00;;;;;;;0.32;0.32;;;;;;;;;;12631141;23;20580;-84
2023/03/26 19:56:13;;;;;;;0.40;0.40;;;;;;;;;;12631584;23;20688;-84
2023/03/26 20:01:19;;;;;;;0.30;0.30;;;;;;;;;;12632113;23;20061;-84
2023/03/26 20:06:27;;;;;;;0.30;0.27;;;;;;;;;;12656133;23;20440;-84
2023/03/26 20:11:39;;;;;;;0.50;0.50;;;;;;;;;;12632112;23;20265;-84
2023/03/26 20:16:46;;;;;;;;;;;;;;;;;;12678416;23;20092;-85
2023/03/26 20:21:51;;;;;;;0.52;0.40;;;;;;;;;;12658822;23;19939;-84
2023/03/26 20:26:56;;;;;;;0.47;0.47;;;;;;;;;;12632095;23;20077;-84
2023/03/26 20:32:02;;;;;;;0.60;0.60;;;;;;;;;;12631771;23;20259;-85
2023/03/26 20:37:06;;;;;;;0.40;0.40;;;;;;;;;;12633087;23;20040;-88
2023/03/26 20:42:12;;;;;;;2.35;1.23;;;;;;;;;;12634993;23;20026;-87
2023/03/26 20:47:17;;;;;;;1.48;0.98;;;;;;;;;;12634103;23;20032;-87
2023/03/26 20:52:24;;;;;;;0.70;0.57;;;;;;;;;;12634689;23;20022;-87
2023/03/26 20:57:31;;;;;;;0.73;0.60;;;;;;;;;;12676161;23;20022;-87
2023/03/26 21:02:35;;;;;;;0.70;0.70;;;;;;;;;;12634653;23;20030;-88
2023/03/26 21:07:40;;;;;;;0.95;0.63;;;;;;;;;;12598567;23;20033;-87
2023/03/26 21:12:53;;;;;;;1.00;0.55;;;;;;;;;;12598243;23;20122;-87
2023/03/26 21:17:58;;;;;;;0.50;0.50;;;;;;;;;;12599086;23;20026;-86
2023/03/26 21:23:08;;;;;;;0.40;0.40;;;;;;;;;;12599173;23;20053;-87
2023/03/26 21:28:30;;;;;;;0.93;0.63;;;;;;;;;;12598587;23;20350;-87
2023/03/26 21:33:39;;;;;;;1.13;0.98;;;;;;;;;;12601867;23;20034;-87
2023/03/26 21:38:44;;;;;;;1.80;1.33;;;;;;;;;;12603756;23;20054;-87
2023/03/26 21:43:49;;;;;;;3.00;1.80;;;;;;;;;;12601506;23;20081;-87
2023/03/26 21:48:53;;;;;;;2.80;1.70;;;;;;;;;;12599704;23;20110;-87
2023/03/26 21:53:57;;;;;;;2.47;1.65;;;;;;;;;;12599854;23;20054;-88
2023/03/26 21:59:10;;;;;;;3.22;1.80;;;;;;;;;;12612745;23;20030;-87
2023/03/26 22:04:19;;;;;;;5.10;2.90;;;;;;;;;;12622790;23;20500;-87
2023/03/26 22:09:23;;;;;;;4.25;2.38;;;;;;;;;;12643450;23;20030;-86
2023/03/26 22:14:31;;;;;;;7.20;2.55;;;;;;;;;;12640138;23;20058;-86
2023/03/26 22:19:34;;;;;;;4.15;1.90;;;;;;;;;;12644970;23;20423;-89
2023/03/26 22:24:38;;;;;;;3.63;2.00;;;;;;;;;;12646326;23;20207;-89
2023/03/26 22:29:44;;;;;;;3.42;1.58;;;;;;;;;;12671048;23;20054;-88
2023/03/26 22:34:47;;;;;;;7.18;2.55;;;;;;;;;;12635599;23;20030;-88
2023/03/26 22:39:51;;;;;;;2.75;1.77;;;;;;;;;;12665648;23;20028;-87
2023/03/26 22:44:56;;;;;;;4.20;1.90;;;;;;;;;;12666303;23;20108;-87
2023/03/26 22:50:00;;;;;;;4.18;2.22;;;;;;;;;;12635224;23;20021;-87
2023/03/26 22:55:05;;;;;;;5.03;1.88;;;;;;;;;;12660600;23;20121;-87
2023/03/26 23:00:14;;;;;;;;;;;;;;;;;;12660099;23;20105;-89
2023/03/26 23:05:21;;;;;;;6.10;1.98;;;;;;;;;;12633195;23;20298;-87
2023/03/26 23:10:24;;;;;;;7.32;2.45;;;;;;;;;;12632316;23;20606;-86
2023/03/26 23:15:30;;;;;;;6.75;2.20;;;;;;;;;;12634787;23;20703;-89
2023/03/26 23:20:38;;;;;;;5.60;1.50;;;;;;;;;;12635437;23;20090;-87
2023/03/26 23:25:44;;;;;;;3.85;1.75;;;;;;;;;;12633696;23;20257;-86
2023/03/26 23:30:52;;;;;;;8.80;2.08;;;;;;;;;;12634537;23;20017;-86
2023/03/26 23:35:57;;;;;;;3.47;1.48;;;;;;;;;;12661695;23;20501;-86
2023/03/26 23:41:01;;;;;;;4.15;1.20;;;;;;;;;;12635414;23;20045;-88
2023/03/26 23:46:09;;;;;;;6.55;1.60;;;;;;;;;;12638199;23;20502;-88
2023/03/26 23:51:12;;;;;;;4.20;0.75;;;;;;;;;;12636960;23;20038;-89
2023/03/26 23:56:16;;;;;;;2.42;1.13;;;;;;;;;;12662631;23;20327;-87
